Santorini, Greece
Current Conditions -  °F | °C
As of 7:50 AM on Tuesday 23 Dec 2014 (Local Time) from LGSR Reporting Station
NA  
Wind Chill: 48°   Ceiling: NA
Heat Index: 48°   Visibility: NA
Dew Point: 41°   Wind: 0mph
Humidity: 76%   Direction: NA
Pressure: 30.27"   Gusts: NA
Location:  36.4°N, 25.46°E
Report Text: LGSR 230450Z AUTO 00000KT //// // ////// 09/05 Q1025 RE//
Loading
Personal Weather Stations






























Interactive Weather Map New forecast layout! Learn more

10-Day Weather Forecast

Advertisements
Track Severe Weather on mobile